createdAt,value
2023-08-29T00:01:42.513Z,22.39
2023-08-29T00:04:10.319Z,22.08
2023-08-29T00:06:37.392Z,21.91
2023-08-29T00:09:05.379Z,21.70
2023-08-29T00:11:32.565Z,21.49
2023-08-29T00:14:00.450Z,21.35
2023-08-29T00:16:27.743Z,21.33
2023-08-29T00:18:54.802Z,21.55
2023-08-29T00:21:21.865Z,21.63
2023-08-29T00:23:49.717Z,21.70
2023-08-29T00:26:16.843Z,21.67
2023-08-29T00:28:45.571Z,21.72
2023-08-29T00:31:12.621Z,21.83
2023-08-29T00:33:39.917Z,21.95
2023-08-29T00:38:34.510Z,22.15
2023-08-29T00:41:01.743Z,21.67
2023-08-29T00:43:30.637Z,21.51
2023-08-29T00:45:59.123Z,21.31
2023-08-29T00:48:26.930Z,21.18
2023-08-29T00:50:56.322Z,21.08
2023-08-29T00:53:25.361Z,20.98
2023-08-29T00:55:52.547Z,20.73
2023-08-29T00:58:20.522Z,20.66
2023-08-29T01:00:47.895Z,20.70
2023-08-29T01:03:15.089Z,20.79
2023-08-29T01:05:42.333Z,20.84
2023-08-29T01:08:09.460Z,20.87
2023-08-29T01:11:22.740Z,21.08
2023-08-29T01:14:24.759Z,21.24
2023-08-29T01:17:14.367Z,21.32
2023-08-29T01:19:43.305Z,21.38
2023-08-29T01:22:41.252Z,21.49
2023-08-29T01:25:26.408Z,21.38
2023-08-29T01:27:54.929Z,21.33
2023-08-29T01:30:23.516Z,21.47
2023-08-29T01:32:51.664Z,21.56
2023-08-29T01:35:18.904Z,21.84
2023-08-29T01:37:45.980Z,22.10
2023-08-29T01:40:13.030Z,22.29
2023-08-29T01:42:42.604Z,22.45
2023-08-29T01:45:10.196Z,22.47
2023-08-29T01:47:37.347Z,22.63
2023-08-29T01:50:06.174Z,22.83
2023-08-29T01:52:33.646Z,22.90
2023-08-29T01:55:00.879Z,22.95
2023-08-29T01:57:29.206Z,23.13
2023-08-29T01:59:58.363Z,23.16
2023-08-29T02:02:25.997Z,23.33
2023-08-29T02:04:53.091Z,23.33
2023-08-29T02:07:20.197Z,23.39
2023-08-29T02:09:47.268Z,23.51
2023-08-29T02:12:14.367Z,23.56
2023-08-29T02:14:42.225Z,23.55
2023-08-29T02:17:09.452Z,23.57
2023-08-29T02:19:36.614Z,23.50
2023-08-29T02:22:03.688Z,23.41
2023-08-29T02:24:32.238Z,23.40
2023-08-29T02:26:59.369Z,23.25
2023-08-29T02:29:26.419Z,23.22
2023-08-29T02:31:53.499Z,23.12
2023-08-29T02:34:20.615Z,23.09
2023-08-29T02:36:47.760Z,22.94
2023-08-29T02:39:14.790Z,22.87
2023-08-29T02:41:41.902Z,22.94
2023-08-29T02:44:09.333Z,22.82
2023-08-29T02:46:36.463Z,22.64
2023-08-29T02:49:03.493Z,22.66
2023-08-29T02:51:30.643Z,22.75
2023-08-29T02:53:57.661Z,22.86
2023-08-29T02:56:24.652Z,22.75
2023-08-29T02:58:52.255Z,22.67
2023-08-29T03:01:19.368Z,22.54
2023-08-29T03:03:46.503Z,22.52
2023-08-29T03:06:13.804Z,22.49
2023-08-29T03:08:40.963Z,22.44
2023-08-29T03:11:08.127Z,22.51
2023-08-29T03:13:36.500Z,22.54
2023-08-29T03:16:12.186Z,22.59
2023-08-29T03:18:41.074Z,22.54
2023-08-29T03:21:08.768Z,22.45
2023-08-29T03:23:36.672Z,22.37
2023-08-29T03:26:11.056Z,22.38
2023-08-29T03:28:39.156Z,22.41
2023-08-29T03:31:14.034Z,22.40
2023-08-29T03:33:42.338Z,22.42
2023-08-29T03:36:10.308Z,22.41
2023-08-29T03:38:39.274Z,22.39
2023-08-29T03:41:07.375Z,22.44
2023-08-29T03:43:36.037Z,22.47
2023-08-29T03:46:07.442Z,22.51
2023-08-29T03:48:38.798Z,22.55
2023-08-29T03:51:08.866Z,22.60
2023-08-29T03:53:39.485Z,22.64
2023-08-29T03:56:10.210Z,22.52
2023-08-29T03:58:37.465Z,22.39
2023-08-29T04:01:05.752Z,22.42
2023-08-29T04:03:33.345Z,22.37
2023-08-29T04:06:01.693Z,22.41
2023-08-29T04:08:28.850Z,22.49
2023-08-29T04:10:58.095Z,22.56
2023-08-29T04:13:25.546Z,22.64
2023-08-29T04:15:52.662Z,22.72
2023-08-29T04:18:19.843Z,22.84
2023-08-29T04:20:47.167Z,22.94
2023-08-29T04:23:14.334Z,23.11
2023-08-29T04:25:41.386Z,23.21
2023-08-29T04:28:08.694Z,23.35
2023-08-29T04:30:36.809Z,23.51
2023-08-29T04:33:04.567Z,23.66
2023-08-29T04:35:31.680Z,23.76
2023-08-29T04:37:59.530Z,23.93
2023-08-29T04:40:28.110Z,24.06
2023-08-29T04:42:55.188Z,24.23
2023-08-29T04:45:22.299Z,24.38
2023-08-29T04:47:49.387Z,24.53
2023-08-29T04:50:16.638Z,24.68
2023-08-29T04:52:43.876Z,24.82
2023-08-29T04:55:11.738Z,25.07
2023-08-29T04:57:39.359Z,25.26
2023-08-29T05:00:10.366Z,25.49
2023-08-29T05:02:37.502Z,25.74
2023-08-29T05:05:04.982Z,25.82
2023-08-29T05:07:32.176Z,26.11
2023-08-29T05:09:59.587Z,26.26
2023-08-29T05:12:27.363Z,26.42
2023-08-29T05:14:55.849Z,26.57
2023-08-29T05:17:22.927Z,26.73
2023-08-29T05:19:50.780Z,26.87
2023-08-29T05:22:18.359Z,27.01
2023-08-29T05:24:45.547Z,27.08
2023-08-29T05:27:12.845Z,27.21
2023-08-29T05:29:40.269Z,27.16
2023-08-29T05:32:07.490Z,27.29
2023-08-29T05:34:34.615Z,27.44
2023-08-29T05:37:01.662Z,27.54
2023-08-29T05:39:28.716Z,27.58
2023-08-29T05:41:55.737Z,27.67
2023-08-29T05:44:22.800Z,27.91
2023-08-29T05:46:49.970Z,27.77
2023-08-29T05:49:17.043Z,27.88
2023-08-29T05:51:44.038Z,28.10
2023-08-29T05:54:11.328Z,28.20
2023-08-29T05:56:39.222Z,28.30
2023-08-29T05:59:06.397Z,28.41
2023-08-29T06:01:34.670Z,28.59
2023-08-29T06:04:01.881Z,28.31
2023-08-29T06:06:29.036Z,28.61
2023-08-29T06:08:56.121Z,28.48
2023-08-29T06:11:23.352Z,28.61
2023-08-29T06:13:52.552Z,28.58
2023-08-29T06:16:20.007Z,28.58
2023-08-29T06:18:48.775Z,28.78
2023-08-29T06:21:15.922Z,28.72
2023-08-29T06:23:43.429Z,28.90
2023-08-29T06:26:10.606Z,29.07
2023-08-29T06:28:38.831Z,29.22
2023-08-29T06:31:08.608Z,29.43
2023-08-29T06:33:37.072Z,29.10
2023-08-29T06:36:04.440Z,29.37
2023-08-29T06:38:33.494Z,29.51
2023-08-29T06:41:04.259Z,29.69
2023-08-29T06:43:31.689Z,29.64
2023-08-29T06:45:58.986Z,29.76
2023-08-29T06:48:26.249Z,29.67
2023-08-29T06:50:53.362Z,29.64
2023-08-29T06:53:20.484Z,30.00
2023-08-29T06:55:48.281Z,30.21
2023-08-29T06:58:15.379Z,30.42
2023-08-29T07:00:42.654Z,30.58
2023-08-29T07:03:09.875Z,30.47
2023-08-29T07:05:37.204Z,30.12
2023-08-29T07:08:05.734Z,30.43
2023-08-29T07:10:33.224Z,30.54
2023-08-29T07:13:00.349Z,30.70
2023-08-29T07:15:27.560Z,30.42
2023-08-29T07:17:55.290Z,30.79
2023-08-29T07:20:22.693Z,30.90
2023-08-29T07:22:49.891Z,30.85
2023-08-29T07:25:21.207Z,30.98
2023-08-29T07:27:48.428Z,31.20
2023-08-29T07:30:16.386Z,30.80
2023-08-29T07:32:44.878Z,30.82
2023-08-29T07:35:12.084Z,31.12
2023-08-29T07:37:39.367Z,30.64
2023-08-29T07:40:07.083Z,30.67
2023-08-29T07:42:34.335Z,30.62
2023-08-29T07:45:01.520Z,30.67
2023-08-29T07:47:28.683Z,30.95
2023-08-29T07:49:55.805Z,30.85
2023-08-29T07:52:22.916Z,30.95
2023-08-29T07:54:50.040Z,31.11
2023-08-29T07:57:17.179Z,31.30
2023-08-29T07:59:44.401Z,31.21
2023-08-29T08:02:11.562Z,31.38
2023-08-29T08:04:38.709Z,31.47
2023-08-29T08:07:06.832Z,31.29
2023-08-29T08:09:34.496Z,31.30
2023-08-29T08:12:03.451Z,31.21
2023-08-29T08:14:30.630Z,31.58
2023-08-29T08:16:57.827Z,31.67
2023-08-29T08:19:25.638Z,31.72
2023-08-29T08:21:52.954Z,31.60
2023-08-29T08:24:20.085Z,31.83
2023-08-29T08:26:47.382Z,32.05
2023-08-29T08:29:14.605Z,31.83
2023-08-29T08:31:41.834Z,31.75
2023-08-29T08:34:08.927Z,31.85
2023-08-29T08:36:36.128Z,32.05
2023-08-29T08:39:05.086Z,32.23
2023-08-29T08:41:32.991Z,32.44
2023-08-29T08:44:05.535Z,32.42
2023-08-29T08:46:34.709Z,32.49
2023-08-29T08:49:03.289Z,32.57
2023-08-29T08:51:32.045Z,32.18
2023-08-29T08:53:59.554Z,32.27
2023-08-29T08:56:28.276Z,32.35
2023-08-29T08:58:55.876Z,32.10
2023-08-29T09:01:23.065Z,32.32
2023-08-29T09:03:51.044Z,32.27
2023-08-29T09:06:18.471Z,32.56
2023-08-29T09:08:45.949Z,32.51
2023-08-29T09:11:13.156Z,32.61
2023-08-29T09:13:47.799Z,32.87
2023-08-29T09:16:15.530Z,32.76
2023-08-29T09:18:46.338Z,32.93
2023-08-29T09:21:22.883Z,32.78
2023-08-29T09:23:51.591Z,32.88
2023-08-29T09:26:19.486Z,32.81
2023-08-29T09:28:47.884Z,32.78
2023-08-29T09:31:17.590Z,32.88
2023-08-29T09:33:44.880Z,32.87
2023-08-29T09:36:12.184Z,32.93
2023-08-29T09:38:42.036Z,33.20
2023-08-29T09:41:18.567Z,33.27
2023-08-29T09:43:49.354Z,33.25
2023-08-29T10:18:01.167Z,31.95
2023-08-29T10:20:29.632Z,32.09
2023-08-29T10:22:57.131Z,32.41
2023-08-29T10:25:25.284Z,32.62
2023-08-29T10:27:52.612Z,32.80
2023-08-29T10:30:19.927Z,33.00
2023-08-29T10:32:47.768Z,32.96
2023-08-29T10:35:24.044Z,33.11
2023-08-29T10:37:55.589Z,32.96
2023-08-29T10:40:23.088Z,33.30
2023-08-29T10:42:55.767Z,33.39
2023-08-29T10:45:42.359Z,33.27
2023-08-29T10:48:10.151Z,33.16
2023-08-29T10:50:38.642Z,33.41
2023-08-29T10:53:06.099Z,33.31
2023-08-29T10:55:36.014Z,33.52
2023-08-29T10:58:34.096Z,33.12
2023-08-29T11:01:01.250Z,33.57
2023-08-29T11:03:53.815Z,33.54
2023-08-29T11:06:25.840Z,33.40
2023-08-29T11:09:18.225Z,33.39
2023-08-29T11:11:45.438Z,33.17
2023-08-29T11:14:12.788Z,33.01
2023-08-29T11:17:11.337Z,33.25
2023-08-29T11:19:40.077Z,33.08
2023-08-29T11:22:09.513Z,33.03
2023-08-29T11:24:36.775Z,32.83
2023-08-29T11:27:03.967Z,33.02
2023-08-29T11:29:37.970Z,33.14
2023-08-29T11:32:05.486Z,32.66
2023-08-29T11:34:36.589Z,32.68
2023-08-29T11:37:03.882Z,32.85
2023-08-29T11:39:31.020Z,32.99
2023-08-29T11:42:17.247Z,33.15
2023-08-29T11:45:15.707Z,33.14
2023-08-29T11:47:32.806Z,33.02
2023-08-29T11:50:00.064Z,32.87
2023-08-29T11:52:27.253Z,32.55
2023-08-29T11:54:55.247Z,32.41
2023-08-29T11:57:22.462Z,32.58
2023-08-29T11:59:52.318Z,32.32
2023-08-29T12:02:22.552Z,32.66
2023-08-29T12:04:57.924Z,32.19
2023-08-29T12:07:31.403Z,32.23
2023-08-29T12:10:07.803Z,32.54
2023-08-29T12:12:39.685Z,32.44
2023-08-29T12:15:12.003Z,32.67
2023-08-29T12:17:41.888Z,32.40
2023-08-29T12:20:14.963Z,32.41
2023-08-29T12:22:47.882Z,32.24
2023-08-29T12:25:15.595Z,32.55
2023-08-29T12:27:45.513Z,32.34
2023-08-29T12:30:15.754Z,32.18
2023-08-29T12:32:48.530Z,32.11
2023-08-29T12:35:18.349Z,32.25
2023-08-29T12:37:45.710Z,32.26
2023-08-29T12:40:14.192Z,32.26
2023-08-29T12:42:43.245Z,32.14
2023-08-29T12:45:11.199Z,32.28
2023-08-29T12:47:39.397Z,32.07
2023-08-29T12:50:07.635Z,31.81
2023-08-29T12:52:34.807Z,31.69
2023-08-29T12:55:01.925Z,31.80
2023-08-29T12:57:29.063Z,32.08
2023-08-29T12:59:56.211Z,31.72
2023-08-29T13:02:23.401Z,31.91
2023-08-29T13:04:50.684Z,31.96
2023-08-29T13:07:17.821Z,31.71
2023-08-29T13:09:46.237Z,31.76
2023-08-29T13:12:13.412Z,31.34
2023-08-29T13:14:40.683Z,31.47
2023-08-29T13:17:11.755Z,31.58
2023-08-29T13:19:40.619Z,31.31
2023-08-29T13:22:08.013Z,31.27
2023-08-29T13:24:37.209Z,30.99
2023-08-29T13:27:05.335Z,31.09
2023-08-29T13:29:32.764Z,30.78
2023-08-29T13:32:00.347Z,30.85
2023-08-29T13:34:28.037Z,31.05
2023-08-29T13:36:55.138Z,30.87
2023-08-29T13:39:22.450Z,31.00
2023-08-29T13:41:49.778Z,30.68
2023-08-29T13:44:17.975Z,30.96
2023-08-29T13:46:46.849Z,30.85
2023-08-29T13:49:14.378Z,30.75
2023-08-29T13:51:41.682Z,30.77
2023-08-29T13:54:09.054Z,30.70
2023-08-29T13:56:37.002Z,30.52
2023-08-29T13:59:04.757Z,30.69
2023-08-29T14:01:32.117Z,30.50
2023-08-29T14:03:59.446Z,30.64
2023-08-29T14:06:26.695Z,30.19
2023-08-29T14:08:53.860Z,30.31
2023-08-29T14:11:20.951Z,30.08
2023-08-29T14:13:48.334Z,30.21
2023-08-29T14:16:15.456Z,30.16
2023-08-29T14:18:45.020Z,30.10
2023-08-29T14:21:12.409Z,30.15
2023-08-29T14:23:39.562Z,30.09
2023-08-29T14:26:10.871Z,30.15
2023-08-29T14:28:38.931Z,30.15
2023-08-29T14:31:06.184Z,30.16
2023-08-29T14:33:33.439Z,30.12
2023-08-29T14:36:05.060Z,30.14
2023-08-29T14:38:32.752Z,30.21
2023-08-29T14:41:12.707Z,29.96
2023-08-29T14:43:40.987Z,30.01
2023-08-29T14:46:08.894Z,30.04
2023-08-29T14:48:37.157Z,30.16
2023-08-29T14:51:07.901Z,30.20
2023-08-29T14:53:35.691Z,30.12
2023-08-29T14:56:03.856Z,30.01
2023-08-29T14:58:33.571Z,29.93
2023-08-29T15:01:01.133Z,29.95
2023-08-29T15:03:28.478Z,29.83
2023-08-29T15:05:59.317Z,29.88
2023-08-29T15:08:27.447Z,29.76
2023-08-29T15:10:55.646Z,29.91
2023-08-29T15:13:23.601Z,29.85
2023-08-29T15:15:50.787Z,29.95
2023-08-29T15:18:19.281Z,30.10
2023-08-29T15:20:46.616Z,29.95
2023-08-29T15:23:16.898Z,29.80
2023-08-29T15:25:44.581Z,29.87
2023-08-29T15:28:12.298Z,29.44
2023-08-29T15:30:40.412Z,29.46
2023-08-29T15:33:07.918Z,29.45
2023-08-29T15:35:35.084Z,29.65
2023-08-29T15:38:02.300Z,29.42
2023-08-29T15:40:29.503Z,29.15
2023-08-29T15:42:56.565Z,29.22
2023-08-29T15:45:23.713Z,29.26
2023-08-29T15:47:51.022Z,29.33
2023-08-29T15:50:18.222Z,29.23
2023-08-29T15:52:45.324Z,29.25
2023-08-29T15:55:12.533Z,29.14
2023-08-29T15:57:39.678Z,29.10
2023-08-29T16:00:13.931Z,28.90
2023-08-29T16:02:47.973Z,28.91
2023-08-29T16:05:15.248Z,28.99
2023-08-29T16:07:45.635Z,29.09
2023-08-29T16:10:15.395Z,28.72
2023-08-29T16:12:43.846Z,28.76
2023-08-29T16:15:11.765Z,28.81
2023-08-29T16:17:39.713Z,28.81
2023-08-29T16:20:09.631Z,28.88
2023-08-29T16:22:40.135Z,28.69
2023-08-29T16:25:07.938Z,28.72
2023-08-29T16:27:38.883Z,28.87
2023-08-29T16:30:08.576Z,28.82
2023-08-29T16:32:36.716Z,28.61
2023-08-29T16:35:04.886Z,28.79
2023-08-29T16:37:32.081Z,28.69
2023-08-29T16:39:59.378Z,28.60
2023-08-29T16:42:26.818Z,28.71
2023-08-29T16:44:54.129Z,28.68
2023-08-29T16:47:21.424Z,28.63
2023-08-29T16:49:48.892Z,28.45
2023-08-29T16:52:16.092Z,28.44
2023-08-29T16:54:43.356Z,28.39
2023-08-29T16:57:10.640Z,28.17
2023-08-29T17:00:02.128Z,28.25
2023-08-29T17:02:29.655Z,27.98
2023-08-29T17:04:56.993Z,27.98
2023-08-29T17:07:24.192Z,27.90
2023-08-29T17:09:51.387Z,27.69
2023-08-29T17:12:23.029Z,27.91
2023-08-29T17:14:51.365Z,27.83
2023-08-29T17:17:19.905Z,27.78
2023-08-29T17:19:47.642Z,27.94
2023-08-29T17:22:14.872Z,27.57
2023-08-29T17:24:42.348Z,27.68
2023-08-29T17:27:09.629Z,27.55
2023-08-29T17:29:36.835Z,27.44
2023-08-29T17:32:04.710Z,27.50
2023-08-29T17:34:31.967Z,27.43
2023-08-29T17:36:59.697Z,27.37
2023-08-29T17:39:27.571Z,27.40
2023-08-29T17:41:55.526Z,27.41
2023-08-29T17:44:22.756Z,27.52
2023-08-29T17:46:50.001Z,27.44
2023-08-29T17:49:19.437Z,27.27
2023-08-29T17:51:47.454Z,27.07
2023-08-29T17:54:14.725Z,27.27
2023-08-29T17:56:41.989Z,26.87
2023-08-29T17:59:09.103Z,26.98
2023-08-29T18:01:36.263Z,27.14
2023-08-29T18:04:08.568Z,27.28
2023-08-29T18:06:36.525Z,27.17
2023-08-29T18:09:03.966Z,27.26
2023-08-29T18:11:31.471Z,26.97
2023-08-29T18:13:58.618Z,27.03
2023-08-29T18:16:25.792Z,26.92
2023-08-29T18:18:53.191Z,26.59
2023-08-29T18:21:20.324Z,26.51
2023-08-29T18:23:47.463Z,26.41
2023-08-29T18:26:14.691Z,26.64
2023-08-29T18:28:41.941Z,26.71
2023-08-29T18:31:09.174Z,26.44
2023-08-29T18:33:36.860Z,26.74
2023-08-29T18:36:04.210Z,26.81
2023-08-29T18:38:31.629Z,26.72
2023-08-29T18:40:59.253Z,26.91
2023-08-29T18:43:26.340Z,26.80
2023-08-29T18:45:53.510Z,26.63
2023-08-29T18:48:21.671Z,26.45
2023-08-29T18:50:48.845Z,26.36
2023-08-29T18:53:16.044Z,26.28
2023-08-29T18:55:45.296Z,26.11
2023-08-29T18:58:13.314Z,25.77
2023-08-29T19:00:40.507Z,25.93
2023-08-29T19:03:10.908Z,25.66
2023-08-29T19:05:40.877Z,25.83
2023-08-29T19:08:08.480Z,25.49
2023-08-29T19:10:39.847Z,25.24
2023-08-29T19:13:07.087Z,24.88
2023-08-29T19:15:34.385Z,24.92
2023-08-29T19:18:04.497Z,25.03
2023-08-29T19:20:35.332Z,24.89
2023-08-29T19:23:02.560Z,24.83
2023-08-29T19:25:29.666Z,24.65
2023-08-29T19:27:58.351Z,24.89
2023-08-29T19:30:25.541Z,24.64
2023-08-29T19:32:54.178Z,24.56
2023-08-29T19:35:21.875Z,24.61
2023-08-29T19:37:49.999Z,24.60
2023-08-29T19:40:17.222Z,24.44
2023-08-29T19:42:44.407Z,24.37
2023-08-29T19:45:11.646Z,24.35
2023-08-29T19:47:38.789Z,24.35
2023-08-29T19:50:06.342Z,24.40
2023-08-29T19:52:33.514Z,24.68
2023-08-29T19:55:01.237Z,24.61
2023-08-29T19:57:28.417Z,24.54
2023-08-29T19:59:55.480Z,24.61
2023-08-29T20:02:22.563Z,24.42
2023-08-29T20:04:49.713Z,24.37
2023-08-29T20:07:16.798Z,24.30
2023-08-29T20:09:43.948Z,24.39
2023-08-29T20:12:11.073Z,24.38
2023-08-29T20:14:38.345Z,24.39
2023-08-29T20:17:06.538Z,24.47
2023-08-29T20:19:34.441Z,24.38
2023-08-29T20:22:01.620Z,24.75
2023-08-29T20:24:28.724Z,25.08
2023-08-29T20:26:55.927Z,25.08
2023-08-29T20:29:23.162Z,25.11
2023-08-29T20:31:50.474Z,25.22
2023-08-29T20:34:17.988Z,25.20
2023-08-29T20:36:49.046Z,25.12
2023-08-29T20:39:16.727Z,25.39
2023-08-29T20:41:43.824Z,25.50
2023-08-29T20:44:11.132Z,25.73
2023-08-29T20:46:38.301Z,25.81
2023-08-29T20:49:05.738Z,25.80
2023-08-29T20:51:34.727Z,25.78
2023-08-29T20:54:02.009Z,25.52
2023-08-29T20:56:29.305Z,25.36
2023-08-29T20:58:56.461Z,25.56
2023-08-29T21:01:24.922Z,25.54
2023-08-29T21:03:52.473Z,25.29
2023-08-29T21:06:19.861Z,25.09
2023-08-29T21:08:47.066Z,25.17
2023-08-29T21:11:14.163Z,25.18
2023-08-29T21:13:41.348Z,25.55
2023-08-29T21:16:08.546Z,25.62
2023-08-29T21:18:35.602Z,25.78
2023-08-29T21:21:04.043Z,25.70
2023-08-29T21:23:31.248Z,25.69
2023-08-29T21:25:58.799Z,25.63
2023-08-29T21:28:27.657Z,25.85
2023-08-29T21:30:55.952Z,25.67
2023-08-29T21:33:24.285Z,25.74
2023-08-29T21:35:52.236Z,25.72
2023-08-29T21:38:20.080Z,25.71
2023-08-29T21:40:47.524Z,25.58
2023-08-29T21:43:22.549Z,25.56
2023-08-29T21:45:55.104Z,25.47
2023-08-29T21:48:24.381Z,25.64
2023-08-29T21:50:53.516Z,25.55
2023-08-29T21:53:20.961Z,25.71
2023-08-29T21:55:48.095Z,25.71
2023-08-29T21:58:20.191Z,25.54
2023-08-29T22:00:55.054Z,25.55
2023-08-29T22:03:23.987Z,25.51
2023-08-29T22:05:51.361Z,25.63
2023-08-29T22:08:20.222Z,25.24
2023-08-29T22:10:48.246Z,25.33
2023-08-29T22:13:15.745Z,25.58
2023-08-29T22:15:42.985Z,25.55
2023-08-29T22:18:10.662Z,25.28
2023-08-29T22:20:38.611Z,25.48
2023-08-29T22:23:05.739Z,25.09
2023-08-29T22:25:32.929Z,25.39
2023-08-29T22:28:00.091Z,25.49
2023-08-29T22:30:27.600Z,25.64
2023-08-29T22:32:54.834Z,25.50
2023-08-29T22:35:22.220Z,25.63
2023-08-29T22:37:49.428Z,25.61
2023-08-29T22:40:17.084Z,25.56
2023-08-29T22:42:45.621Z,25.52
2023-08-29T22:45:14.721Z,25.58
2023-08-29T22:47:42.413Z,25.52
2023-08-29T22:50:09.820Z,25.57
2023-08-29T22:52:40.037Z,25.41
2023-08-29T22:55:07.799Z,25.47
2023-08-29T22:57:35.170Z,25.61
2023-08-29T23:00:02.392Z,25.51
2023-08-29T23:02:29.616Z,25.51
2023-08-29T23:04:56.755Z,25.50
2023-08-29T23:07:23.947Z,25.34
2023-08-29T23:09:51.068Z,25.47
2023-08-29T23:12:18.251Z,25.16
2023-08-29T23:14:45.348Z,25.27
2023-08-29T23:17:13.405Z,25.42
2023-08-29T23:19:45.453Z,25.34
2023-08-29T23:22:12.729Z,25.00
2023-08-29T23:24:39.954Z,25.29
2023-08-29T23:27:07.466Z,25.14
2023-08-29T23:29:37.487Z,25.20
2023-08-29T23:32:05.783Z,25.00
2023-08-29T23:34:33.143Z,24.76
2023-08-29T23:37:00.327Z,24.88
2023-08-29T23:39:27.444Z,24.87
2023-08-29T23:41:54.640Z,25.10
2023-08-29T23:44:21.793Z,25.21
2023-08-29T23:46:49.076Z,25.20
2023-08-29T23:49:16.237Z,25.30
2023-08-29T23:51:43.353Z,25.34
2023-08-29T23:54:10.513Z,25.20
2023-08-29T23:56:37.674Z,25.36
2023-08-29T23:59:05.320Z,25.13
